Time;durP1;ratioP1;P1;durP2;ratioP2;P2;SDS_P1;SDS_P2;PMS_P1;PMS_P2;Temp;Humidity;BMP_temperature;BMP_pressure;BME280_temperature;BME280_humidity;BME280_pressure;Samples;Min_cycle;Max_cycle;Signal;HPM_P1;HPM_P2
2022/07/06 00:00:53;;;;;;;7.82;3.22;;;19.70;85.40;;;;;;5054510;28;20381;-14
2022/07/06 00:03:18;;;;;;;4.68;3.22;;;19.70;85.10;;;;;;5036672;28;20021;-14
2022/07/06 00:05:44;;;;;;;8.07;3.47;;;19.60;84.50;;;;;;5036547;28;20036;-14
2022/07/06 00:08:10;;;;;;;7.90;3.60;;;19.60;84.00;;;;;;5054645;28;20025;-14
2022/07/06 00:10:36;;;;;;;5.47;3.45;;;19.60;84.70;;;;;;5054342;28;20067;-14
2022/07/06 00:13:02;;;;;;;8.43;3.47;;;19.50;86.10;;;;;;5054567;28;20538;-15
2022/07/06 00:15:27;;;;;;;6.63;3.70;;;19.50;86.10;;;;;;5054452;28;20376;-15
2022/07/06 00:17:53;;;;;;;4.20;3.15;;;19.50;85.40;;;;;;5054153;28;20028;-14
2022/07/06 00:20:19;;;;;;;6.72;4.10;;;19.50;85.70;;;;;;5054006;28;20103;-14
2022/07/06 00:22:45;;;;;;;4.15;3.00;;;19.50;85.80;;;;;;5054417;28;20035;-14
2022/07/06 00:25:11;;;;;;;3.97;2.97;;;19.40;84.30;;;;;;5054259;28;20024;-15
2022/07/06 00:27:36;;;;;;;6.32;3.25;;;19.50;83.40;;;;;;5054185;28;20543;-14
2022/07/06 00:30:03;;;;;;;6.65;3.63;;;19.50;83.10;;;;;;5053893;28;20029;-14
2022/07/06 00:32:28;;;;;;;6.05;3.50;;;19.50;82.90;;;;;;5035837;28;20025;-14
2022/07/06 00:34:54;;;;;;;8.32;4.00;;;19.60;83.00;;;;;;5053880;28;20040;-14
2022/07/06 00:37:20;;;;;;;5.47;3.58;;;19.60;83.20;;;;;;5054153;28;20021;-14
2022/07/06 00:39:46;;;;;;;3.08;2.63;;;19.60;82.70;;;;;;5054079;28;20017;-14
2022/07/06 00:42:12;;;;;;;3.95;2.92;;;19.60;82.70;;;;;;5054029;28;20465;-14
2022/07/06 00:44:37;;;;;;;6.57;3.20;;;19.70;82.60;;;;;;5035170;28;20504;-13
2022/07/06 00:47:03;;;;;;;6.75;3.67;;;19.60;82.30;;;;;;5053601;28;20440;-15
2022/07/06 00:52:15;;;;;;;4.22;3.10;;;19.60;82.50;;;;;;5053491;28;20400;-16
2022/07/06 00:54:43;;;;;;;5.00;3.67;;;19.60;82.50;;;;;;5053543;28;20040;-13
2022/07/06 00:57:10;;;;;;;5.72;3.20;;;19.60;82.50;;;;;;5061346;28;20126;-12
2022/07/06 00:59:36;;;;;;;6.15;4.00;;;19.70;82.30;;;;;;5073721;28;20028;-12
2022/07/06 01:02:02;;;;;;;5.07;3.70;;;19.70;82.90;;;;;;5073244;28;20021;-13
2022/07/06 01:04:28;;;;;;;4.68;3.35;;;19.60;83.90;;;;;;5073492;28;20028;-12
2022/07/06 01:06:54;;;;;;;6.43;3.85;;;19.60;83.50;;;;;;5073575;28;20123;-12
2022/07/06 01:09:20;;;;;;;5.45;4.10;;;19.50;82.80;;;;;;5073576;28;20024;-13
2022/07/06 01:11:46;;;;;;;6.13;3.75;;;19.60;83.10;;;;;;5073554;28;20361;-12
2022/07/06 01:14:13;;;;;;;5.72;3.90;;;19.60;83.40;;;;;;5073626;28;20024;-14
2022/07/06 01:16:39;;;;;;;7.32;4.10;;;19.60;83.10;;;;;;5073070;28;20016;-15
2022/07/06 01:19:05;;;;;;;6.20;4.03;;;19.60;84.00;;;;;;5073501;28;20024;-15
2022/07/06 01:21:31;;;;;;;9.57;4.72;;;19.50;84.90;;;;;;5055155;28;20502;-13
2022/07/06 01:23:57;;;;;;;5.80;4.60;;;19.60;84.90;;;;;;5073449;28;20036;-14
2022/07/06 01:26:22;;;;;;;6.47;5.10;;;19.50;85.40;;;;;;5072897;28;20441;-15
2022/07/06 01:28:50;;;;;;;7.82;4.53;;;19.50;85.50;;;;;;5072955;28;20036;-15
2022/07/06 01:31:24;;;;;;;5.50;4.05;;;19.50;85.70;;;;;;5073115;28;20496;-13
2022/07/06 01:33:52;;;;;;;6.00;4.35;;;19.50;85.80;;;;;;5072982;28;20498;-14
2022/07/06 01:36:19;;;;;;;7.65;5.25;;;19.60;86.10;;;;;;5072922;28;20016;-15
2022/07/06 01:38:51;;;;;;;8.40;4.47;;;19.60;86.50;;;;;;5072948;28;20377;-15
2022/07/06 01:41:17;;;;;;;5.60;3.80;;;19.60;85.50;;;;;;5072942;28;20029;-15
2022/07/06 01:43:44;;;;;;;5.40;3.75;;;19.60;84.60;;;;;;5073111;28;20071;-15
2022/07/06 01:46:10;;;;;;;5.10;3.75;;;19.70;84.70;;;;;;5054853;28;20028;-15
2022/07/06 01:48:36;;;;;;;5.75;4.40;;;19.80;85.20;;;;;;5072631;28;20067;-15
2022/07/06 01:51:03;;;;;;;4.15;3.67;;;19.90;85.30;;;;;;5072830;28;20052;-13
2022/07/06 01:53:29;;;;;;;4.95;3.65;;;19.90;84.90;;;;;;5072799;28;20029;-13
2022/07/06 01:55:55;;;;;;;4.25;3.83;;;19.90;84.60;;;;;;5055079;28;20032;-13
2022/07/06 01:58:20;;;;;;;7.95;5.20;;;19.90;84.60;;;;;;5076528;28;20526;-13
2022/07/06 02:00:46;;;;;;;8.27;5.80;;;19.90;84.40;;;;;;5077017;28;20034;-15
2022/07/06 02:03:12;;;;;;;5.07;4.00;;;19.90;84.20;;;;;;5058777;28;20119;-14
2022/07/06 02:05:38;;;;;;;5.20;3.65;;;19.90;84.20;;;;;;5077263;28;20024;-14
2022/07/06 02:08:03;;;;;;;5.28;4.20;;;19.90;84.40;;;;;;5077275;28;20025;-13
2022/07/06 02:10:29;;;;;;;4.70;3.58;;;19.90;84.80;;;;;;5076361;28;20028;-13
2022/07/06 02:12:55;;;;;;;6.82;5.22;;;19.90;84.50;;;;;;5076507;28;20024;-13
2022/07/06 02:15:21;;;;;;;5.13;4.28;;;19.90;85.80;;;;;;5076409;28;20115;-13
2022/07/06 02:17:47;;;;;;;6.35;4.00;;;19.90;84.60;;;;;;5058515;28;20075;-15
2022/07/06 02:20:13;;;;;;;6.65;4.50;;;19.90;84.60;;;;;;5076689;28;20025;-14
2022/07/06 02:22:38;;;;;;;8.45;6.25;;;19.90;84.10;;;;;;5076208;28;20361;-13
2022/07/06 02:25:04;;;;;;;5.35;4.18;;;19.90;84.00;;;;;;5076392;28;20078;-13
2022/07/06 02:27:31;;;;;;;4.85;3.83;;;19.90;84.20;;;;;;5076459;28;20037;-13
2022/07/06 02:29:57;;;;;;;5.93;4.43;;;19.90;84.10;;;;;;5076971;28;20054;-15
2022/07/06 02:32:23;;;;;;;5.88;4.72;;;19.90;84.20;;;;;;5076258;28;20106;-14
2022/07/06 02:34:49;;;;;;;6.60;4.82;;;20.00;84.80;;;;;;5076740;28;20067;-15
2022/07/06 02:37:14;;;;;;;7.40;5.45;;;20.00;84.90;;;;;;5076433;28;20025;-15
2022/07/06 02:39:40;;;;;;;6.85;4.72;;;20.00;85.00;;;;;;5076047;28;20060;-15
2022/07/06 02:42:06;;;;;;;9.18;6.20;;;20.10;84.50;;;;;;5058544;28;20021;-15
2022/07/06 02:44:32;;;;;;;8.10;6.28;;;20.10;84.80;;;;;;5075664;28;20029;-13
2022/07/06 02:46:58;;;;;;;6.65;4.75;;;20.10;84.80;;;;;;5076219;28;20039;-15
2022/07/06 02:49:24;;;;;;;7.45;5.53;;;20.10;84.70;;;;;;5075964;28;20071;-13
2022/07/06 02:51:50;;;;;;;5.82;4.65;;;20.10;85.00;;;;;;5058003;28;20036;-15
2022/07/06 02:54:15;;;;;;;6.07;4.60;;;20.10;84.80;;;;;;5075718;28;20031;-15
2022/07/06 02:56:41;;;;;;;7.57;4.53;;;20.00;84.50;;;;;;5057574;28;20044;-14
2022/07/06 02:59:07;;;;;;;6.03;4.10;;;20.10;84.50;;;;;;5076211;28;20043;-15
2022/07/06 03:01:33;;;;;;;5.95;4.40;;;20.10;84.30;;;;;;5075975;28;20035;-14
2022/07/06 03:03:58;;;;;;;5.63;4.38;;;20.10;84.30;;;;;;5075873;28;20104;-14
2022/07/06 03:06:24;;;;;;;5.85;3.97;;;20.10;84.20;;;;;;5075259;28;20427;-15
2022/07/06 03:08:50;;;;;;;5.82;4.43;;;20.10;84.20;;;;;;5075541;28;20024;-15
2022/07/06 03:11:16;;;;;;;6.65;5.30;;;20.10;84.30;;;;;;5075509;28;20415;-13
2022/07/06 03:13:42;;;;;;;8.02;6.18;;;20.10;84.20;;;;;;5075444;28;20036;-14
2022/07/06 03:16:08;;;;;;;8.15;5.57;;;20.10;84.20;;;;;;5075418;28;20046;-11
2022/07/06 03:18:34;;;;;;;8.23;5.43;;;20.10;84.40;;;;;;5075102;28;20407;-13
2022/07/06 03:21:03;;;;;;;7.30;5.55;;;20.10;84.50;;;;;;5057881;28;20052;-12
2022/07/06 03:23:30;;;;;;;5.40;4.75;;;20.10;84.50;;;;;;5075498;28;20483;-12
2022/07/06 03:25:55;;;;;;;6.68;5.57;;;20.20;84.40;;;;;;5057267;28;20036;-12
2022/07/06 03:28:21;;;;;;;8.27;6.22;;;20.20;84.50;;;;;;5074971;28;20032;-12
2022/07/06 03:30:47;;;;;;;9.57;6.70;;;20.20;84.60;;;;;;5074972;28;20035;-14
2022/07/06 03:33:13;;;;;;;9.25;5.60;;;20.20;84.70;;;;;;5075406;28;20048;-13
2022/07/06 03:35:39;;;;;;;8.60;6.20;;;20.20;85.00;;;;;;5074951;28;20047;-13
2022/07/06 03:38:04;;;;;;;9.23;6.75;;;20.10;84.80;;;;;;5075248;28;20112;-13
2022/07/06 03:40:31;;;;;;;8.82;6.38;;;20.10;84.80;;;;;;5074812;28;20021;-13
2022/07/06 03:42:56;;;;;;;9.93;7.18;;;20.10;84.80;;;;;;5075138;28;20024;-12
2022/07/06 03:45:22;;;;;;;8.00;5.97;;;20.10;85.10;;;;;;5075366;28;20033;-12
2022/07/06 03:47:48;;;;;;;9.38;7.32;;;20.10;85.00;;;;;;5074915;28;20055;-12
2022/07/06 03:50:15;;;;;;;9.20;6.57;;;20.10;85.10;;;;;;5075163;28;20043;-13
2022/07/06 03:52:41;;;;;;;12.68;7.90;;;20.20;85.20;;;;;;5075472;28;20396;-13
2022/07/06 03:55:11;;;;;;;11.18;7.53;;;20.20;85.30;;;;;;5074629;28;20503;-12
2022/07/06 03:57:39;;;;;;;8.25;6.00;;;20.30;85.30;;;;;;5056528;28;20106;-14
2022/07/06 04:00:06;;;;;;;9.20;6.90;;;20.30;85.30;;;;;;5074473;28;20025;-14
2022/07/06 04:02:32;;;;;;;13.52;7.43;;;20.40;85.30;;;;;;5074572;28;20073;-14
2022/07/06 04:04:58;;;;;;;10.23;7.07;;;20.40;85.20;;;;;;5074754;28;20032;-14
2022/07/06 04:07:24;;;;;;;10.02;6.93;;;20.40;85.30;;;;;;5074382;28;20082;-14
2022/07/06 04:09:50;;;;;;;8.82;6.40;;;20.40;85.30;;;;;;5074339;28;20031;-12
2022/07/06 04:12:16;;;;;;;10.60;7.22;;;20.50;85.30;;;;;;5074070;28;20029;-12
2022/07/06 04:14:42;;;;;;;8.15;5.90;;;20.40;85.30;;;;;;5074513;28;20115;-12
2022/07/06 04:19:53;;;;;;;7.95;5.40;;;20.50;85.30;;;;;;5073948;28;20032;-12
2022/07/06 04:22:19;;;;;;;8.82;6.25;;;20.50;85.10;;;;;;5074248;28;20024;-14
2022/07/06 04:24:45;;;;;;;6.63;4.63;;;20.50;85.00;;;;;;5074392;28;20366;-13
2022/07/06 04:27:11;;;;;;;6.38;4.82;;;20.50;85.10;;;;;;5073962;28;20028;-12
2022/07/06 04:29:37;;;;;;;10.15;5.53;;;20.50;85.00;;;;;;5073912;28;20024;-12
2022/07/06 04:32:03;;;;;;;6.85;5.45;;;20.50;84.90;;;;;;5074236;28;20052;-13
2022/07/06 04:34:29;;;;;;;10.73;7.25;;;20.60;84.80;;;;;;5074273;28;20054;-13
2022/07/06 04:36:56;;;;;;;6.80;5.22;;;20.60;84.70;;;;;;5074157;28;20063;-12
2022/07/06 04:39:21;;;;;;;8.80;6.80;;;20.60;84.80;;;;;;5073975;28;20028;-14
2022/07/06 04:41:47;;;;;;;6.80;5.22;;;20.70;84.70;;;;;;5074118;28;20506;-14
2022/07/06 04:44:13;;;;;;;9.80;5.85;;;20.70;84.60;;;;;;5074013;28;20423;-13
2022/07/06 04:46:39;;;;;;;8.02;6.43;;;20.70;84.60;;;;;;5074239;28;20422;-14
2022/07/06 04:49:04;;;;;;;7.50;5.50;;;20.80;84.50;;;;;;5073713;28;20051;-14
2022/07/06 04:51:30;;;;;;;9.57;6.40;;;20.80;84.50;;;;;;5073947;28;20075;-13
2022/07/06 04:53:56;;;;;;;8.02;5.97;;;20.90;84.40;;;;;;5073869;28;20522;-13
2022/07/06 04:56:22;;;;;;;9.00;6.15;;;20.90;84.20;;;;;;5072976;28;20044;-13
2022/07/06 04:58:48;;;;;;;10.73;7.97;;;20.90;84.00;;;;;;5073807;28;20029;-12
2022/07/06 05:01:14;;;;;;;7.90;5.70;;;20.90;83.80;;;;;;5073339;28;20078;-13
2022/07/06 05:03:40;;;;;;;10.90;7.97;;;21.00;83.80;;;;;;5073649;28;20033;-12
2022/07/06 05:06:07;;;;;;;8.45;5.07;;;21.00;83.70;;;;;;5073582;28;20055;-15
2022/07/06 05:08:33;;;;;;;7.10;5.15;;;21.00;83.40;;;;;;5073469;28;20025;-13
2022/07/06 05:11:00;;;;;;;7.32;5.22;;;21.00;83.40;;;;;;5073538;28;20107;-13
2022/07/06 05:13:26;;;;;;;6.30;5.43;;;21.10;83.40;;;;;;5073854;28;20027;-14
2022/07/06 05:15:52;;;;;;;7.00;4.70;;;21.10;83.50;;;;;;5073106;28;20016;-13
2022/07/06 05:18:18;;;;;;;6.95;5.20;;;21.20;83.00;;;;;;5073293;28;20032;-14
2022/07/06 05:20:44;;;;;;;6.43;5.43;;;21.20;82.90;;;;;;5073161;28;20115;-15
2022/07/06 05:23:10;;;;;;;9.63;5.18;;;21.20;82.80;;;;;;5073406;28;20052;-13
2022/07/06 05:25:36;;;;;;;6.68;4.70;;;21.20;82.90;;;;;;5073006;28;20555;-14
2022/07/06 05:28:03;;;;;;;6.88;5.15;;;21.20;82.80;;;;;;5073397;28;20027;-13
2022/07/06 05:30:29;;;;;;;5.30;4.45;;;21.20;82.70;;;;;;5073152;28;20056;-13
2022/07/06 05:32:55;;;;;;;9.35;5.72;;;21.30;82.60;;;;;;5073293;28;20074;-15
2022/07/06 05:35:21;;;;;;;7.90;5.13;;;21.30;82.50;;;;;;5073355;28;20399;-13
2022/07/06 05:37:47;;;;;;;8.40;4.85;;;21.40;82.30;;;;;;5073275;28;20098;-15
2022/07/06 05:40:12;;;;;;;6.95;4.85;;;21.40;82.20;;;;;;5073120;28;20469;-14
2022/07/06 05:42:38;;;;;;;8.25;5.45;;;21.40;82.10;;;;;;5072746;28;20411;-13
2022/07/06 05:45:05;;;;;;;8.65;5.97;;;21.40;82.10;;;;;;5072683;28;20066;-15
2022/07/06 05:50:32;;;;;;;5.45;4.65;;;21.50;81.90;;;;;;4992024;28;20034;-13
2022/07/06 05:53:04;;;;;;;8.60;5.32;;;21.70;81.70;;;;;;5042471;28;20028;-15
2022/07/06 05:55:31;;;;;;;6.57;5.00;;;21.80;81.60;;;;;;5073054;28;20025;-14
2022/07/06 06:01:18;;;;;;;8.60;4.80;;;22.10;81.50;;;;;;5073032;28;20035;-14
2022/07/06 06:03:44;;;;;;;4.90;3.88;;;22.30;80.70;;;;;;5072751;28;20392;-15
2022/07/06 06:06:10;;;;;;;9.38;4.90;;;22.40;81.20;;;;;;5072994;28;20043;-14
2022/07/06 06:08:36;;;;;;;5.57;4.13;;;22.60;80.90;;;;;;5072721;28;20369;-13
2022/07/06 06:11:02;;;;;;;7.53;4.65;;;22.80;80.00;;;;;;5072618;28;20091;-13
2022/07/06 06:13:28;;;;;;;7.93;4.93;;;22.90;79.10;;;;;;5072616;28;20044;-13
2022/07/06 06:15:54;;;;;;;8.20;6.25;;;23.00;78.80;;;;;;5072642;28;20021;-14
2022/07/06 06:18:20;;;;;;;7.25;4.75;;;23.10;78.20;;;;;;5072677;28;20028;-13
2022/07/06 06:20:46;;;;;;;8.68;5.03;;;23.30;78.00;;;;;;5054649;28;20388;-13
2022/07/06 06:23:13;;;;;;;8.32;5.72;;;23.40;77.60;;;;;;5072946;28;20099;-13
2022/07/06 06:25:39;;;;;;;6.35;4.50;;;23.50;77.10;;;;;;5072394;28;20028;-13
2022/07/06 06:28:08;;;;;;;7.43;5.47;;;23.60;76.70;;;;;;5073139;28;20456;-13
2022/07/06 06:30:34;;;;;;;9.10;4.95;;;23.70;76.50;;;;;;5072536;28;20032;-13
2022/07/06 06:33:13;;;;;;;6.07;4.60;;;23.90;76.10;;;;;;5072494;28;20502;-13
2022/07/06 06:35:44;;;;;;;4.15;3.38;;;24.00;75.40;;;;;;5072788;28;20024;-13
2022/07/06 06:38:11;;;;;;;5.22;4.10;;;24.10;75.00;;;;;;5072673;28;20027;-13
2022/07/06 06:40:37;;;;;;;4.38;3.70;;;24.20;74.30;;;;;;5072416;28;20032;-13
2022/07/06 06:43:03;;;;;;;6.47;4.43;;;24.30;74.10;;;;;;5074014;28;20056;-13
2022/07/06 06:45:29;;;;;;;5.15;4.13;;;24.40;73.70;;;;;;5076137;28;20111;-13
2022/07/06 06:47:56;;;;;;;6.55;4.90;;;24.50;73.40;;;;;;5076508;28;20023;-13
2022/07/06 06:50:24;;;;;;;5.13;3.90;;;24.60;72.80;;;;;;5076329;28;20024;-13
2022/07/06 06:52:51;;;;;;;5.15;3.80;;;24.80;72.70;;;;;;5076148;28;20133;-13
2022/07/06 06:55:17;;;;;;;4.53;3.72;;;24.90;72.50;;;;;;5075765;28;20400;-13
2022/07/06 06:57:44;;;;;;;8.60;5.22;;;25.10;72.00;;;;;;5075656;28;20131;-13
2022/07/06 07:00:11;;;;;;;7.10;4.28;;;25.20;71.30;;;;;;5075611;28;20400;-13
2022/07/06 07:02:38;;;;;;;3.65;3.20;;;25.40;71.00;;;;;;5075465;28;20043;-13
2022/07/06 07:05:05;;;;;;;4.82;3.00;;;25.50;69.80;;;;;;5076207;28;20433;-13
2022/07/06 07:07:31;;;;;;;3.60;3.15;;;25.60;68.70;;;;;;5075817;28;20537;-13
2022/07/06 07:09:57;;;;;;;7.05;3.25;;;25.80;68.30;;;;;;5075578;28;20024;-13
2022/07/06 07:12:23;;;;;;;3.92;2.83;;;25.90;67.80;;;;;;5075240;28;20032;-13
2022/07/06 07:14:49;;;;;;;6.35;2.78;;;26.10;66.10;;;;;;5075880;28;20021;-13
2022/07/06 07:17:15;;;;;;;4.18;2.67;;;26.20;65.30;;;;;;5075988;28;20017;-13
2022/07/06 07:19:41;;;;;;;3.20;2.80;;;26.40;63.20;;;;;;5075665;28;20021;-13
2022/07/06 07:22:07;;;;;;;3.22;2.92;;;26.60;62.30;;;;;;5075631;28;20099;-13
2022/07/06 07:24:33;;;;;;;4.43;2.83;;;26.80;62.20;;;;;;5075185;28;20417;-13
2022/07/06 07:26:59;;;;;;;2.90;2.40;;;26.90;61.40;;;;;;5075353;28;20064;-13
2022/07/06 07:29:25;;;;;;;4.15;2.55;;;27.00;61.40;;;;;;5075101;28;20056;-13
2022/07/06 07:31:51;;;;;;;3.35;2.38;;;27.20;61.40;;;;;;5075258;28;20068;-13
2022/07/06 07:34:17;;;;;;;3.15;2.63;;;27.40;61.00;;;;;;5075097;28;20020;-14
2022/07/06 07:36:43;;;;;;;2.78;2.58;;;27.60;58.50;;;;;;5075204;28;20035;-13
2022/07/06 07:39:09;;;;;;;4.78;2.70;;;27.80;57.00;;;;;;5074994;28;20028;-13
2022/07/06 07:41:35;;;;;;;3.35;2.45;;;27.90;57.00;;;;;;5074900;28;20025;-13
2022/07/06 07:44:01;;;;;;;4.43;2.47;;;28.10;57.30;;;;;;5074958;28;20107;-13
2022/07/06 07:46:27;;;;;;;3.97;2.60;;;28.30;56.90;;;;;;5074737;28;20121;-14
2022/07/06 07:48:52;;;;;;;2.60;2.40;;;28.50;56.30;;;;;;5075110;28;20361;-13
2022/07/06 07:51:19;;;;;;;3.28;2.50;;;28.70;56.40;;;;;;5075026;28;20039;-14
2022/07/06 07:53:46;;;;;;;2.95;2.25;;;28.90;55.10;;;;;;5073877;28;20024;-13
2022/07/06 07:56:12;;;;;;;4.28;3.00;;;29.00;55.00;;;;;;5074331;28;20079;-13
2022/07/06 07:58:38;;;;;;;2.47;2.25;;;29.30;53.50;;;;;;5074206;28;20088;-13
2022/07/06 08:01:04;;;;;;;2.75;2.30;;;29.40;51.10;;;;;;5074786;28;20542;-13
2022/07/06 08:03:31;;;;;;;2.47;2.28;;;29.50;51.00;;;;;;5074525;28;20086;-13
2022/07/06 08:05:57;;;;;;;2.42;2.22;;;29.60;50.50;;;;;;5075245;28;20063;-13
2022/07/06 08:08:24;;;;;;;3.28;2.30;;;29.90;51.00;;;;;;5074258;28;20029;-13
2022/07/06 08:10:49;;;;;;;3.05;2.58;;;30.00;50.50;;;;;;5074646;28;20031;-14
2022/07/06 08:13:15;;;;;;;3.65;2.50;;;30.10;50.40;;;;;;5056934;28;20020;-13
2022/07/06 08:15:42;;;;;;;3.13;2.30;;;30.20;50.30;;;;;;5074198;28;20054;-14
2022/07/06 08:18:09;;;;;;;3.33;2.45;;;30.30;50.40;;;;;;5056552;28;20033;-13
2022/07/06 08:20:37;;;;;;;5.30;2.70;;;30.60;49.10;;;;;;5074387;28;20029;-14
2022/07/06 08:23:04;;;;;;;2.50;2.30;;;30.90;46.50;;;;;;5074378;28;20029;-13
2022/07/06 08:25:30;;;;;;;3.38;2.35;;;31.10;46.90;;;;;;5074584;28;20112;-13
2022/07/06 08:27:56;;;;;;;2.60;2.40;;;31.30;46.90;;;;;;5074041;28;20031;-14
2022/07/06 08:30:23;;;;;;;3.70;2.40;;;31.60;46.40;;;;;;5073729;28;20016;-14
2022/07/06 08:32:48;;;;;;;5.22;2.55;;;31.80;46.00;;;;;;5073873;28;20119;-14
2022/07/06 08:35:15;;;;;;;2.50;2.30;;;31.90;43.70;;;;;;5074489;28;20109;-14
2022/07/06 08:37:41;;;;;;;2.90;2.60;;;32.10;44.60;;;;;;5073752;28;20028;-14
2022/07/06 08:40:08;;;;;;;2.53;2.33;;;32.20;44.10;;;;;;5073720;28;20067;-14
2022/07/06 08:42:35;;;;;;;2.30;2.10;;;32.30;44.10;;;;;;5073811;28;20068;-14
2022/07/06 08:45:03;;;;;;;2.95;2.53;;;32.20;44.40;;;;;;5073926;28;20029;-14
2022/07/06 08:47:30;;;;;;;2.45;2.25;;;32.30;44.30;;;;;;5073558;28;20029;-14
2022/07/06 08:49:57;;;;;;;3.30;2.40;;;32.50;43.40;;;;;;5073880;28;20031;-14
2022/07/06 08:52:24;;;;;;;2.33;2.20;;;32.70;41.90;;;;;;5073282;28;20039;-14
2022/07/06 08:54:50;;;;;;;3.00;2.20;;;32.70;41.40;;;;;;5073752;28;20023;-13
2022/07/06 08:57:17;;;;;;;2.80;1.88;;;32.70;40.40;;;;;;5074072;28;20048;-14
2022/07/06 08:59:43;;;;;;;3.58;2.08;;;32.80;40.30;;;;;;5073614;28;20543;-14
2022/07/06 09:02:14;;;;;;;2.30;2.10;;;32.90;40.30;;;;;;5073388;28;20388;-14
2022/07/06 09:04:44;;;;;;;2.70;1.80;;;33.10;40.00;;;;;;5073639;28;20036;-14
2022/07/06 09:07:11;;;;;;;2.25;2.10;;;33.40;40.30;;;;;;5073133;28;20036;-14
2022/07/06 09:09:39;;;;;;;3.63;2.35;;;33.60;40.20;;;;;;5073275;28;20058;-14
2022/07/06 09:12:12;;;;;;;3.80;2.42;;;33.90;39.80;;;;;;5073479;28;20028;-14
2022/07/06 09:14:38;;;;;;;2.20;2.05;;;34.10;39.00;;;;;;5072936;28;20044;-14
2022/07/06 09:17:07;;;;;;;2.25;2.05;;;34.40;38.90;;;;;;5073163;28;20025;-14
2022/07/06 09:19:35;;;;;;;3.97;2.00;;;34.70;38.90;;;;;;5073159;28;20027;-14
2022/07/06 09:22:02;;;;;;;2.38;2.10;;;34.90;38.80;;;;;;5073374;28;20024;-14
2022/07/06 09:24:29;;;;;;;2.42;1.90;;;35.20;38.40;;;;;;5072874;28;20024;-14
2022/07/06 09:26:57;;;;;;;2.50;1.98;;;35.40;35.30;;;;;;5073287;28;20037;-13
2022/07/06 09:29:31;;;;;;;3.60;2.60;;;35.50;35.70;;;;;;5072980;28;20112;-14
2022/07/06 09:31:59;;;;;;;2.15;1.98;;;35.50;36.40;;;;;;5073265;28;20546;-14
2022/07/06 09:34:26;;;;;;;2.17;1.98;;;35.60;36.80;;;;;;5073107;28;20028;-13
2022/07/06 09:36:52;;;;;;;1.80;1.70;;;35.70;35.80;;;;;;5073560;28;20021;-14
2022/07/06 09:39:27;;;;;;;1.90;1.80;;;35.90;35.00;;;;;;5072946;28;20024;-13
2022/07/06 09:41:56;;;;;;;4.05;2.22;;;36.10;34.30;;;;;;5072917;28;20024;-13
2022/07/06 09:44:22;;;;;;;1.92;1.83;;;36.20;33.20;;;;;;5072873;28;20468;-14
2022/07/06 09:46:49;;;;;;;2.97;1.80;;;36.40;33.70;;;;;;5054914;28;20039;-13
2022/07/06 09:49:22;;;;;;;2.15;1.70;;;36.50;33.40;;;;;;5072890;28;20033;-13
2022/07/06 09:51:53;;;;;;;2.33;2.13;;;36.70;33.20;;;;;;5073045;28;20029;-13
2022/07/06 09:54:19;;;;;;;3.00;2.15;;;37.00;33.20;;;;;;5072732;28;20040;-13
2022/07/06 09:56:53;;;;;;;2.72;2.10;;;37.10;31.80;;;;;;5072557;28;20067;-13
2022/07/06 09:59:24;;;;;;;2.92;2.17;;;37.20;32.00;;;;;;5072800;28;20032;-14
2022/07/06 10:01:54;;;;;;;5.28;2.13;;;37.20;31.60;;;;;;5072829;28;20028;-13
2022/07/06 10:04:21;;;;;;;3.05;2.20;;;37.20;31.60;;;;;;5072577;28;20031;-14
2022/07/06 10:06:48;;;;;;;2.42;2.05;;;37.00;32.00;;;;;;5073131;28;20032;-13
2022/07/06 10:09:15;;;;;;;2.00;1.90;;;37.20;31.70;;;;;;5072721;28;20522;-13
2022/07/06 10:11:53;;;;;;;3.67;2.33;;;37.30;32.20;;;;;;5072729;28;20027;-13
2022/07/06 10:14:28;;;;;;;3.05;2.10;;;37.50;31.60;;;;;;5072424;28;20032;-13
2022/07/06 10:16:57;;;;;;;2.30;1.90;;;37.60;31.60;;;;;;5073308;28;20024;-13
2022/07/06 10:19:24;;;;;;;2.65;2.00;;;37.80;31.80;;;;;;5076884;28;20111;-13
2022/07/06 10:21:53;;;;;;;3.75;2.30;;;38.10;30.50;;;;;;5076465;28;20512;-13
2022/07/06 10:24:21;;;;;;;2.47;1.92;;;38.20;29.50;;;;;;5076510;28;20055;-13
2022/07/06 10:26:48;;;;;;;3.70;1.88;;;38.30;29.80;;;;;;5076289;28;20033;-13
2022/07/06 10:29:14;;;;;;;3.80;2.15;;;38.40;29.80;;;;;;5076598;28;20108;-13
2022/07/06 10:31:43;;;;;;;3.58;1.83;;;38.50;29.90;;;;;;5076404;28;20024;-13
2022/07/06 10:34:12;;;;;;;3.72;2.13;;;38.60;29.10;;;;;;5076321;28;20131;-13
2022/07/06 10:36:40;;;;;;;2.95;2.25;;;38.70;29.50;;;;;;5075940;28;20028;-13
2022/07/06 10:41:53;;;;;;;2.67;2.00;;;38.80;29.80;;;;;;5025590;28;20120;-13
2022/07/06 10:44:23;;;;;;;2.97;2.13;;;38.90;29.50;;;;;;5075907;28;20505;-13
2022/07/06 10:46:54;;;;;;;3.15;2.22;;;38.90;29.30;;;;;;5075787;28;20618;-13
2022/07/06 10:49:21;;;;;;;2.40;2.17;;;38.90;29.60;;;;;;5075916;28;20068;-13
2022/07/06 10:51:51;;;;;;;3.38;2.17;;;39.10;29.50;;;;;;5058338;28;20028;-13
2022/07/06 10:54:19;;;;;;;4.57;2.45;;;39.00;29.10;;;;;;5075981;28;20025;-13
2022/07/06 10:56:45;;;;;;;3.53;2.20;;;38.90;29.70;;;;;;5075554;28;20412;-13
2022/07/06 10:59:21;;;;;;;2.65;2.30;;;39.00;29.00;;;;;;5075771;28;20498;-13
2022/07/06 11:02:13;;;;;;;4.07;2.17;;;39.20;29.30;;;;;;5075983;28;20035;-13
2022/07/06 11:04:46;;;;;;;2.83;2.10;;;39.50;28.90;;;;;;5076047;28;20036;-13
2022/07/06 11:07:14;;;;;;;3.20;2.08;;;39.90;28.70;;;;;;5075904;28;20036;-13
2022/07/06 11:09:47;;;;;;;2.30;2.10;;;40.10;27.50;;;;;;5075871;28;20070;-13
2022/07/06 11:12:18;;;;;;;4.50;2.28;;;40.30;27.50;;;;;;5075847;28;20032;-13
2022/07/06 11:14:46;;;;;;;1.95;1.85;;;40.40;27.20;;;;;;5076028;28;20511;-13
2022/07/06 11:17:13;;;;;;;2.60;2.00;;;40.60;27.00;;;;;;5075407;28;20029;-13
2022/07/06 11:19:55;;;;;;;2.40;2.20;;;40.80;26.00;;;;;;5075469;28;20020;-13
2022/07/06 11:22:21;;;;;;;2.88;2.00;;;40.90;26.00;;;;;;5075215;28;20111;-13
2022/07/06 11:24:47;;;;;;;2.17;1.80;;;41.00;26.00;;;;;;5075616;28;20096;-13
2022/07/06 11:27:14;;;;;;;5.05;2.00;;;41.00;26.00;;;;;;5075468;28;20029;-13
2022/07/06 11:29:40;;;;;;;2.72;1.70;;;41.30;25.60;;;;;;5075268;28;20032;-13
2022/07/06 11:32:13;;;;;;;2.83;1.80;;;41.60;25.70;;;;;;5075279;28;20406;-13
2022/07/06 11:34:44;;;;;;;1.58;1.40;;;41.50;25.00;;;;;;5075453;28;20033;-13
2022/07/06 11:37:12;;;;;;;1.63;1.48;;;41.60;24.80;;;;;;5075330;28;20507;-13
2022/07/06 11:39:43;;;;;;;2.13;1.73;;;41.80;24.60;;;;;;5075325;28;20119;-13
2022/07/06 11:42:10;;;;;;;1.48;1.40;;;42.00;21.90;;;;;;5075336;28;20024;-13
2022/07/06 11:44:38;;;;;;;1.70;1.60;;;42.00;22.70;;;;;;5074685;28;20024;-13
2022/07/06 11:47:06;;;;;;;1.65;1.40;;;42.20;23.00;;;;;;5074787;28;20538;-13
2022/07/06 11:49:34;;;;;;;3.67;1.67;;;42.20;22.70;;;;;;5074582;28;20488;-13
2022/07/06 11:52:05;;;;;;;2.17;1.48;;;42.30;21.60;;;;;;5074916;28;20028;-13
2022/07/06 11:54:33;;;;;;;3.28;1.60;;;42.30;22.30;;;;;;5074622;28;20104;-14
2022/07/06 11:56:59;;;;;;;1.58;1.42;;;42.50;22.40;;;;;;5074791;28;20114;-14
2022/07/06 11:59:34;;;;;;;3.17;1.80;;;42.80;22.60;;;;;;5074960;28;20411;-14
2022/07/06 12:02:05;;;;;;;2.78;1.60;;;43.00;21.20;;;;;;5074917;28;20025;-14
2022/07/06 12:04:36;;;;;;;1.57;1.37;;;43.00;22.20;;;;;;5074443;28;20100;-13
2022/07/06 12:07:05;;;;;;;3.10;1.65;;;43.10;22.50;;;;;;5074742;28;20028;-13
2022/07/06 12:09:33;;;;;;;2.63;1.48;;;42.90;22.70;;;;;;5074404;28;20028;-13
2022/07/06 12:12:02;;;;;;;2.20;1.70;;;43.00;22.20;;;;;;5074382;28;20027;-13
2022/07/06 12:14:29;;;;;;;3.50;1.63;;;43.20;22.10;;;;;;5074492;28;20033;-13
2022/07/06 12:16:55;;;;;;;2.90;1.45;;;42.90;22.80;;;;;;5074481;28;20021;-13
2022/07/06 12:19:22;;;;;;;1.80;1.70;;;42.90;23.10;;;;;;5057345;28;20119;-13
2022/07/06 12:21:52;;;;;;;2.38;1.73;;;43.10;22.70;;;;;;5074774;28;20044;-13
2022/07/06 12:24:21;;;;;;;2.97;1.42;;;43.20;21.90;;;;;;5073900;28;20068;-13
2022/07/06 12:26:48;;;;;;;2.50;1.40;;;43.20;21.10;;;;;;5074489;28;20464;-13
2022/07/06 12:29:14;;;;;;;1.40;1.30;;;43.30;20.90;;;;;;5074417;28;20070;-13
2022/07/06 12:31:44;;;;;;;2.13;1.50;;;43.40;20.00;;;;;;5074524;28;20016;-13
2022/07/06 12:34:35;;;;;;;4.28;1.60;;;43.30;19.90;;;;;;5074205;28;20086;-13
2022/07/06 12:37:07;;;;;;;2.35;1.45;;;43.20;20.00;;;;;;5074252;28;20047;-13
2022/07/06 12:39:42;;;;;;;3.20;1.67;;;42.80;20.20;;;;;;5073988;28;20384;-13
2022/07/06 12:42:08;;;;;;;3.88;1.60;;;42.40;20.30;;;;;;5073881;28;20021;-16
2022/07/06 12:44:43;;;;;;;2.47;1.45;;;41.70;20.80;;;;;;5073832;28;20051;-14
2022/07/06 12:47:10;;;;;;;3.80;1.55;;;41.40;21.40;;;;;;5074068;28;20431;-15
2022/07/06 12:49:38;;;;;;;1.98;1.60;;;41.40;20.70;;;;;;5073910;28;20021;-14
2022/07/06 12:52:06;;;;;;;1.38;1.33;;;41.30;21.80;;;;;;5073609;28;20033;-15
2022/07/06 12:54:50;;;;;;;1.50;1.40;;;41.60;21.60;;;;;;5073318;28;20075;-15
2022/07/06 12:57:28;;;;;;;2.15;1.40;;;42.00;21.20;;;;;;5073510;28;20049;-14
2022/07/06 12:59:54;;;;;;;1.88;1.33;;;42.20;20.30;;;;;;5073670;28;20025;-14